createdAt,value
2019-04-14T00:00:05.562Z,2.00
2019-04-14T00:02:57.733Z,2.10
2019-04-14T00:05:28.215Z,2.20
2019-04-14T00:07:58.470Z,2.10
2019-04-14T00:10:28.922Z,2.10
2019-04-14T00:12:58.480Z,2.10
2019-04-14T00:15:33.009Z,2.10
2019-04-14T00:17:59.127Z,2.10
2019-04-14T00:20:29.321Z,2.10
2019-04-14T00:22:59.773Z,2.10
2019-04-14T00:25:30.270Z,2.00
2019-04-14T00:28:00.768Z,2.00
2019-04-14T00:30:30.218Z,2.00
2019-04-14T00:33:01.958Z,2.00
2019-04-14T00:35:40.682Z,1.90
2019-04-14T00:38:32.330Z,1.90
2019-04-14T00:41:20.176Z,1.90
2019-04-14T00:44:05.611Z,1.90
2019-04-14T00:46:42.986Z,1.90
2019-04-14T00:49:13.605Z,1.90
2019-04-14T00:51:44.090Z,1.90
2019-04-14T00:54:13.692Z,1.80
2019-04-14T00:56:43.333Z,1.80
2019-04-14T00:59:13.632Z,1.80
2019-04-14T01:01:43.798Z,1.80
2019-04-14T01:04:14.338Z,1.80
2019-04-14T01:06:44.862Z,1.90
2019-04-14T01:09:15.219Z,1.80
2019-04-14T01:11:44.702Z,1.90
2019-04-14T01:14:14.753Z,1.90
2019-04-14T01:16:45.201Z,1.90
2019-04-14T01:19:15.509Z,1.90
2019-04-14T01:21:45.761Z,1.80
2019-04-14T01:24:16.359Z,1.80
2019-04-14T01:26:46.379Z,1.80
2019-04-14T01:29:16.599Z,1.90
2019-04-14T01:31:47.039Z,2.00
2019-04-14T01:34:17.291Z,1.90
2019-04-14T01:36:47.487Z,2.00
2019-04-14T01:39:17.635Z,2.00
2019-04-14T01:41:47.809Z,2.00
2019-04-14T01:44:17.787Z,1.90
2019-04-14T01:46:47.785Z,1.90
2019-04-14T01:49:17.937Z,1.90
2019-04-14T01:51:54.895Z,1.90
2019-04-14T01:54:47.352Z,1.90
2019-04-14T01:57:41.664Z,1.90
2019-04-14T02:00:27.002Z,1.90
2019-04-14T02:02:57.602Z,1.90
2019-04-14T02:05:27.780Z,1.90
2019-04-14T02:07:58.006Z,1.90
2019-04-14T02:10:28.049Z,2.00
2019-04-14T02:12:58.536Z,1.90
2019-04-14T02:15:28.675Z,1.90
2019-04-14T02:17:58.898Z,1.90
2019-04-14T02:20:29.554Z,2.00
2019-04-14T02:22:59.580Z,1.90
2019-04-14T02:25:29.566Z,1.90
2019-04-14T02:28:00.104Z,1.90
2019-04-14T02:30:36.255Z,1.90
2019-04-14T02:33:37.775Z,1.80
2019-04-14T02:38:41.439Z,1.90
2019-04-14T02:41:04.234Z,1.90
2019-04-14T02:48:53.340Z,1.80
2019-04-14T02:51:14.402Z,1.80
2019-04-14T02:56:46.731Z,1.80
2019-04-14T03:01:14.743Z,1.70
2019-04-14T03:03:41.334Z,1.70
2019-04-14T03:16:23.343Z,1.70
2019-04-14T03:19:20.553Z,1.70
2019-04-14T03:21:54.744Z,1.70
2019-04-14T03:24:47.627Z,1.60
2019-04-14T03:27:44.883Z,1.70
2019-04-14T03:30:34.162Z,1.70
2019-04-14T03:35:50.991Z,1.80
2019-04-14T03:40:27.458Z,1.70
2019-04-14T03:43:04.006Z,1.70
2019-04-14T03:45:27.616Z,1.70
2019-04-14T03:48:31.523Z,1.70
2019-04-14T03:50:23.087Z,1.70
2019-04-14T03:53:03.276Z,1.60
2019-04-14T03:55:17.893Z,1.60
2019-04-14T03:57:32.896Z,1.60
2019-04-14T04:00:03.205Z,1.60
2019-04-14T04:02:33.709Z,1.50
2019-04-14T04:05:04.131Z,1.50
2019-04-14T04:07:34.336Z,1.50
2019-04-14T04:10:16.393Z,1.50
2019-04-14T04:12:46.548Z,1.60
2019-04-14T04:15:17.029Z,1.60
2019-04-14T04:17:54.151Z,1.60
2019-04-14T04:20:48.221Z,1.60
2019-04-14T04:23:40.286Z,1.60
2019-04-14T04:26:19.061Z,1.60
2019-04-14T04:29:07.032Z,1.60
2019-04-14T04:32:05.698Z,1.60
2019-04-14T04:34:40.287Z,1.60
2019-04-14T04:37:37.600Z,1.70
2019-04-14T04:40:11.524Z,1.70
2019-04-14T04:42:41.625Z,1.70
2019-04-14T04:45:12.725Z,1.70
2019-04-14T04:47:42.652Z,1.70
2019-04-14T04:50:13.055Z,1.70
2019-04-14T04:52:42.945Z,1.70
2019-04-14T04:55:13.362Z,1.60
2019-04-14T04:57:43.817Z,1.60
2019-04-14T05:00:13.517Z,1.60
2019-04-14T05:02:43.888Z,1.60
2019-04-14T05:05:49.248Z,1.60
2019-04-14T05:08:19.556Z,1.60
2019-04-14T05:11:12.130Z,1.60
2019-04-14T05:13:42.963Z,1.60
2019-04-14T05:16:12.792Z,1.60
2019-04-14T05:19:31.846Z,1.60
2019-04-14T05:22:14.301Z,1.60
2019-04-14T05:24:43.970Z,1.70
2019-04-14T05:27:14.554Z,1.70
2019-04-14T05:29:45.052Z,1.70
2019-04-14T05:32:15.211Z,1.70
2019-04-14T05:34:45.450Z,1.70
2019-04-14T05:37:16.085Z,1.70
2019-04-14T05:39:46.143Z,1.70
2019-04-14T05:42:21.901Z,1.60
2019-04-14T05:44:49.339Z,1.60
2019-04-14T05:47:37.129Z,1.60
2019-04-14T05:50:09.533Z,1.60
2019-04-14T05:52:40.351Z,1.60
2019-04-14T05:55:28.516Z,1.60
2019-04-14T05:58:16.480Z,1.60
2019-04-14T06:00:47.593Z,1.60
2019-04-14T06:03:17.213Z,1.60
2019-04-14T06:05:46.816Z,1.60
2019-04-14T06:08:16.449Z,1.50
2019-04-14T06:10:46.014Z,1.50
2019-04-14T06:13:15.536Z,1.40
2019-04-14T06:15:44.977Z,1.40
2019-04-14T06:18:14.498Z,1.40
2019-04-14T06:20:44.102Z,1.40
2019-04-14T06:23:13.665Z,1.40
2019-04-14T06:25:43.197Z,1.50
2019-04-14T06:28:12.793Z,1.60
2019-04-14T06:30:59.858Z,1.60
2019-04-14T06:33:37.993Z,1.50
2019-04-14T06:36:26.869Z,1.60
2019-04-14T06:39:20.454Z,1.60
2019-04-14T06:41:50.186Z,1.60
2019-04-14T06:44:19.715Z,1.70
2019-04-14T06:46:49.456Z,1.90
2019-04-14T06:49:18.993Z,2.10
2019-04-14T06:51:48.622Z,2.10
2019-04-14T06:54:18.085Z,2.10
2019-04-14T06:56:47.519Z,2.10
2019-04-14T06:59:17.092Z,2.00
2019-04-14T07:01:46.608Z,1.90
2019-04-14T07:04:16.172Z,1.90
2019-04-14T07:06:45.825Z,1.90
2019-04-14T07:09:15.350Z,1.90
2019-04-14T07:11:44.892Z,2.00
2019-04-14T07:14:14.440Z,1.90
2019-04-14T07:16:43.924Z,1.80
2019-04-14T07:19:13.481Z,1.70
2019-04-14T07:21:43.049Z,1.70
2019-04-14T07:24:12.564Z,1.70
2019-04-14T07:26:42.107Z,1.70
2019-04-14T07:29:14.583Z,1.70
2019-04-14T07:31:53.213Z,1.70
2019-04-14T07:34:48.143Z,1.70
2019-04-14T07:37:55.354Z,1.80
2019-04-14T07:40:40.326Z,1.90
2019-04-14T07:43:22.674Z,2.00
2019-04-14T07:46:16.900Z,2.20
2019-04-14T07:48:58.382Z,2.40
2019-04-14T07:51:43.998Z,2.50
2019-04-14T07:54:30.447Z,2.80
2019-04-14T07:57:13.217Z,2.90
2019-04-14T07:59:51.124Z,2.90
2019-04-14T08:03:00.248Z,3.00
2019-04-14T08:05:32.864Z,3.00
2019-04-14T08:08:02.505Z,3.00
2019-04-14T08:10:32.069Z,2.90
2019-04-14T08:13:01.627Z,2.90
2019-04-14T08:15:31.225Z,2.80
2019-04-14T08:18:00.743Z,2.80
2019-04-14T08:20:30.238Z,2.80
2019-04-14T08:22:59.768Z,2.90
2019-04-14T08:25:29.366Z,2.90
2019-04-14T08:27:58.871Z,3.00
2019-04-14T08:30:28.384Z,3.00
2019-04-14T08:32:57.917Z,3.10
2019-04-14T08:35:27.581Z,3.30
2019-04-14T08:37:57.155Z,3.40
2019-04-14T08:40:26.704Z,3.20
2019-04-14T08:43:13.283Z,3.20
2019-04-14T08:46:16.820Z,3.20
2019-04-14T08:48:48.885Z,3.30
2019-04-14T08:51:40.146Z,3.40
2019-04-14T08:54:22.573Z,3.50
2019-04-14T08:57:17.041Z,3.70
2019-04-14T09:00:06.661Z,4.00
2019-04-14T09:02:58.058Z,4.40
2019-04-14T09:05:43.396Z,4.60
2019-04-14T09:08:38.007Z,4.50
2019-04-14T09:11:08.170Z,4.60
2019-04-14T09:13:37.817Z,4.70
2019-04-14T09:16:07.385Z,4.80
2019-04-14T09:18:39.023Z,4.90
2019-04-14T09:21:08.721Z,4.80
2019-04-14T09:23:38.402Z,4.90
2019-04-14T09:26:08.151Z,5.00
2019-04-14T09:28:37.817Z,5.20
2019-04-14T09:31:07.425Z,5.20
2019-04-14T09:33:37.009Z,5.10
2019-04-14T09:36:06.581Z,5.00
2019-04-14T09:38:36.221Z,5.20
2019-04-14T09:41:05.793Z,5.50
2019-04-14T09:43:35.325Z,5.80
2019-04-14T09:46:04.810Z,5.80
2019-04-14T09:48:34.429Z,5.60
2019-04-14T09:51:05.028Z,5.30
2019-04-14T09:53:35.016Z,5.40
2019-04-14T09:56:04.613Z,5.60
2019-04-14T09:58:34.092Z,5.90
2019-04-14T10:01:03.659Z,6.50
2019-04-14T10:03:33.317Z,7.00
2019-04-14T10:06:02.875Z,7.70
2019-04-14T10:08:32.438Z,7.60
2019-04-14T10:11:04.928Z,7.30
2019-04-14T10:13:34.357Z,7.10
2019-04-14T10:16:03.873Z,7.20
2019-04-14T10:18:33.488Z,7.20
2019-04-14T10:21:02.960Z,7.60
2019-04-14T10:23:32.557Z,7.70
2019-04-14T10:26:03.056Z,7.80
2019-04-14T10:28:32.532Z,8.40
2019-04-14T10:31:01.947Z,9.20
2019-04-14T10:33:31.676Z,9.40
2019-04-14T10:36:03.115Z,9.20
2019-04-14T10:38:32.974Z,9.00
2019-04-14T10:41:02.359Z,8.60
2019-04-14T10:43:31.886Z,8.60
2019-04-14T10:46:01.317Z,8.80
2019-04-14T10:48:32.972Z,9.00
2019-04-14T10:51:02.378Z,9.60
2019-04-14T10:53:31.939Z,9.90
2019-04-14T10:56:01.781Z,10.30
2019-04-14T10:58:31.226Z,10.40
2019-04-14T11:01:00.816Z,9.90
2019-04-14T11:03:30.152Z,9.70
2019-04-14T11:06:24.987Z,9.90
2019-04-14T11:08:54.768Z,10.00
2019-04-14T11:11:42.013Z,10.20
2019-04-14T11:14:11.488Z,10.40
2019-04-14T11:16:43.060Z,10.30
2019-04-14T11:19:13.571Z,10.10
2019-04-14T11:21:43.192Z,10.20
2019-04-14T11:24:12.585Z,10.60
2019-04-14T11:26:42.101Z,10.10
2019-04-14T11:29:11.755Z,9.90
2019-04-14T11:32:37.234Z,10.00
2019-04-14T11:35:12.936Z,10.00
2019-04-14T11:37:59.605Z,10.30
2019-04-14T11:40:34.673Z,10.60
2019-04-14T11:43:03.937Z,11.30
2019-04-14T11:45:33.336Z,12.10
2019-04-14T11:48:02.736Z,12.10
2019-04-14T11:50:32.191Z,11.40
2019-04-14T11:53:01.725Z,10.80
2019-04-14T11:55:31.230Z,10.40
2019-04-14T11:58:00.846Z,9.90
2019-04-14T12:00:47.901Z,9.70
2019-04-14T12:03:35.331Z,10.20
2019-04-14T12:06:15.071Z,10.50
2019-04-14T12:09:09.796Z,10.60
2019-04-14T12:11:39.221Z,11.00
2019-04-14T12:14:08.600Z,11.50
2019-04-14T12:16:38.122Z,11.20
2019-04-14T12:19:07.672Z,11.30
2019-04-14T12:21:37.165Z,11.20
2019-04-14T12:24:06.733Z,10.60
2019-04-14T12:26:36.301Z,10.40
2019-04-14T12:29:06.402Z,10.60
2019-04-14T12:31:35.890Z,10.40
2019-04-14T12:34:05.375Z,10.10
2019-04-14T12:36:34.768Z,10.30
2019-04-14T12:39:05.912Z,10.80
2019-04-14T12:41:48.691Z,11.30
2019-04-14T12:44:49.340Z,11.50
2019-04-14T12:47:46.585Z,11.50
2019-04-14T12:50:25.774Z,11.00
2019-04-14T12:52:56.363Z,10.60
2019-04-14T12:55:26.033Z,10.60
2019-04-14T12:57:58.217Z,10.90
2019-04-14T13:00:33.825Z,11.20
2019-04-14T13:03:03.259Z,11.20
2019-04-14T13:05:32.671Z,11.60
2019-04-14T13:08:02.162Z,11.90
2019-04-14T13:10:31.580Z,12.00
2019-04-14T13:13:01.042Z,11.40
2019-04-14T13:15:30.420Z,10.70
2019-04-14T13:21:46.557Z,10.30
2019-04-14T13:24:16.248Z,10.50
2019-04-14T13:26:45.726Z,10.60
2019-04-14T13:29:17.314Z,11.30
2019-04-14T13:31:47.143Z,12.00
2019-04-14T13:34:16.623Z,12.40
2019-04-14T13:36:46.002Z,11.40
2019-04-14T13:39:15.441Z,10.60
2019-04-14T13:41:44.889Z,10.10
2019-04-14T13:44:14.508Z,9.30
2019-04-14T13:46:43.968Z,8.50
2019-04-14T13:49:13.534Z,8.30
2019-04-14T13:51:42.994Z,8.00
2019-04-14T13:54:12.716Z,7.60
2019-04-14T13:56:42.136Z,7.40
2019-04-14T13:59:11.741Z,7.50
2019-04-14T14:01:41.209Z,7.80
2019-04-14T14:04:10.617Z,8.20
2019-04-14T14:06:40.122Z,8.90
2019-04-14T14:09:12.324Z,9.70
2019-04-14T14:12:06.573Z,10.10
2019-04-14T14:15:03.784Z,10.00
2019-04-14T14:17:44.844Z,9.80
2019-04-14T14:20:33.231Z,9.60
2019-04-14T14:23:24.575Z,9.70
2019-04-14T14:25:59.053Z,9.60
2019-04-14T14:28:28.457Z,9.60
2019-04-14T14:30:57.914Z,9.60
2019-04-14T14:33:45.385Z,9.40
2019-04-14T14:36:32.905Z,9.50
2019-04-14T14:39:07.782Z,10.10
2019-04-14T14:41:37.241Z,11.10
2019-04-14T14:44:06.643Z,11.50
2019-04-14T14:46:57.820Z,11.50
2019-04-14T14:49:48.812Z,11.30
2019-04-14T14:52:37.458Z,11.00
2019-04-14T14:55:07.209Z,11.20
2019-04-14T14:57:36.734Z,11.50
2019-04-14T15:00:12.837Z,11.60
2019-04-14T15:02:42.510Z,11.40
2019-04-14T15:05:12.248Z,11.10
2019-04-14T15:07:41.867Z,10.80
2019-04-14T15:10:11.812Z,10.60
2019-04-14T15:12:44.076Z,11.00
2019-04-14T15:15:13.799Z,11.10
2019-04-14T15:17:43.414Z,11.10
2019-04-14T15:20:13.092Z,11.20
2019-04-14T15:22:42.697Z,11.50
2019-04-14T15:25:12.500Z,11.30
2019-04-14T15:27:42.213Z,10.80
2019-04-14T15:30:16.607Z,10.60
2019-04-14T15:32:46.173Z,10.50
2019-04-14T15:35:15.950Z,10.10
2019-04-14T15:37:45.548Z,9.90
2019-04-14T15:40:33.018Z,9.60
2019-04-14T15:43:03.873Z,9.60
2019-04-14T15:45:33.522Z,9.20
2019-04-14T15:48:03.283Z,9.10
2019-04-14T15:50:32.906Z,9.10
2019-04-14T15:53:02.524Z,9.00
2019-04-14T15:55:32.267Z,9.10
2019-04-14T15:58:26.518Z,9.00
2019-04-14T16:01:13.884Z,8.90
2019-04-14T16:04:12.511Z,8.80
2019-04-14T16:07:00.875Z,8.90
2019-04-14T16:09:41.473Z,8.90
2019-04-14T16:12:38.801Z,8.90
2019-04-14T16:15:18.103Z,8.80
2019-04-14T16:18:15.392Z,8.70
2019-04-14T16:20:45.171Z,8.60
2019-04-14T16:23:14.744Z,8.70
2019-04-14T16:26:06.175Z,8.70
2019-04-14T16:28:54.596Z,8.60
2019-04-14T16:31:42.955Z,8.60
2019-04-14T16:34:15.803Z,8.60
2019-04-14T16:36:47.076Z,8.50
2019-04-14T16:39:16.751Z,8.30
2019-04-14T16:41:46.307Z,8.20
2019-04-14T16:44:15.904Z,8.00
2019-04-14T16:46:45.389Z,7.90
2019-04-14T16:49:14.894Z,7.90
2019-04-14T16:51:59.744Z,7.70
2019-04-14T16:54:54.031Z,7.60
2019-04-14T16:57:41.290Z,7.60
2019-04-14T17:00:12.026Z,7.70
2019-04-14T17:02:41.467Z,7.70
2019-04-14T17:05:11.036Z,7.70
2019-04-14T17:07:43.351Z,7.60
2019-04-14T17:10:12.867Z,7.60
2019-04-14T17:12:42.402Z,7.60
2019-04-14T17:15:36.899Z,7.60
2019-04-14T17:18:28.298Z,7.60
2019-04-14T17:21:16.657Z,7.50
2019-04-14T17:24:15.998Z,7.50
2019-04-14T17:26:55.174Z,7.50
2019-04-14T17:29:45.402Z,7.30
2019-04-14T17:32:25.602Z,7.10
2019-04-14T17:35:12.680Z,7.00
2019-04-14T17:37:54.533Z,6.90
2019-04-14T17:40:52.529Z,6.90
2019-04-14T17:43:40.822Z,6.80
2019-04-14T17:46:28.068Z,6.80
2019-04-14T17:49:15.880Z,6.70
2019-04-14T17:51:51.528Z,6.60
2019-04-14T17:54:34.248Z,6.50
2019-04-14T17:57:25.880Z,6.40
2019-04-14T18:00:07.049Z,6.30
2019-04-14T18:02:52.268Z,6.10
2019-04-14T18:05:31.087Z,6.00
2019-04-14T18:08:18.652Z,5.90
2019-04-14T18:10:56.147Z,5.80
2019-04-14T18:13:42.507Z,5.70
2019-04-14T18:16:38.569Z,5.60
2019-04-14T18:19:12.106Z,5.70
2019-04-14T18:21:44.153Z,5.60
2019-04-14T18:24:12.827Z,5.50
2019-04-14T18:26:42.244Z,5.50
2019-04-14T18:29:29.358Z,5.40
2019-04-14T18:32:30.051Z,5.40
2019-04-14T18:35:17.078Z,5.30
2019-04-14T18:38:17.880Z,5.10
2019-04-14T18:41:08.460Z,5.10
2019-04-14T18:43:56.866Z,4.90
2019-04-14T18:47:04.001Z,4.80
2019-04-14T18:49:50.953Z,4.60
2019-04-14T18:52:45.332Z,4.50
2019-04-14T18:55:46.138Z,4.50
2019-04-14T18:58:40.252Z,4.50
2019-04-14T19:01:38.149Z,4.30
2019-04-14T19:04:11.227Z,4.30
2019-04-14T19:06:40.932Z,4.10
2019-04-14T19:09:10.745Z,4.10
2019-04-14T19:12:05.725Z,4.00
2019-04-14T19:14:37.789Z,4.00
2019-04-14T19:17:11.360Z,4.00
2019-04-14T19:19:43.473Z,4.00
2019-04-14T19:22:13.083Z,3.90
2019-04-14T19:24:42.605Z,3.70
2019-04-14T19:27:12.062Z,3.60
2019-04-14T19:29:41.581Z,3.60
2019-04-14T19:32:11.096Z,3.60
2019-04-14T19:34:40.615Z,3.60
2019-04-14T19:37:10.056Z,3.50
2019-04-14T19:39:39.621Z,3.40
2019-04-14T19:42:09.063Z,3.20
2019-04-14T19:44:38.876Z,3.00
2019-04-14T19:47:08.361Z,2.90
2019-04-14T19:49:37.797Z,2.90
2019-04-14T19:52:07.395Z,3.00
2019-04-14T19:54:36.920Z,3.00
2019-04-14T19:57:06.484Z,2.90
2019-04-14T19:59:36.013Z,2.70
2019-04-14T20:02:05.612Z,2.50
2019-04-14T20:04:35.119Z,2.30
2019-04-14T20:10:22.412Z,2.10
2019-04-14T20:12:51.848Z,2.10
2019-04-14T20:15:27.545Z,2.00
2019-04-14T20:18:02.860Z,1.90
2019-04-14T20:21:09.475Z,1.90
2019-04-14T20:23:42.944Z,1.80
2019-04-14T20:26:30.229Z,1.70
2019-04-14T20:29:24.808Z,1.70
2019-04-14T20:32:03.489Z,1.70
2019-04-14T20:34:32.861Z,1.70
2019-04-14T20:37:02.246Z,1.60
2019-04-14T20:39:32.938Z,1.50
2019-04-14T20:42:02.367Z,1.40
2019-04-14T20:44:31.767Z,1.50
2019-04-14T20:47:01.374Z,1.50
2019-04-14T20:49:30.817Z,1.40
2019-04-14T20:52:00.518Z,1.30
2019-04-14T20:54:30.017Z,1.20
2019-04-14T20:56:59.513Z,1.20
2019-04-14T20:59:28.999Z,1.20
2019-04-14T21:02:20.149Z,1.10
2019-04-14T21:05:11.581Z,1.10
2019-04-14T21:07:59.988Z,1.20
2019-04-14T21:10:42.866Z,1.30
2019-04-14T21:13:34.258Z,1.40
2019-04-14T21:16:12.736Z,1.30
2019-04-14T21:18:44.743Z,1.20
2019-04-14T21:21:27.499Z,1.00
2019-04-14T21:24:28.162Z,0.80
2019-04-14T21:27:08.236Z,0.80
2019-04-14T21:29:56.569Z,0.70
2019-04-14T21:32:32.961Z,0.50
2019-04-14T21:35:24.509Z,0.40
2019-04-14T21:38:18.652Z,0.40
2019-04-14T21:40:54.217Z,0.40
2019-04-14T21:43:23.579Z,0.40
2019-04-14T21:45:52.994Z,0.30
2019-04-14T21:48:22.370Z,0.20
2019-04-14T21:50:51.777Z,0.10
2019-04-14T21:53:21.272Z,0.00
2019-04-14T21:55:50.925Z,0.00
2019-04-14T21:58:45.200Z,0.00
2019-04-14T22:01:50.876Z,0.00
2019-04-14T22:04:38.735Z,0.00
2019-04-14T22:07:25.961Z,0.00
2019-04-14T22:09:59.118Z,-0.10
2019-04-14T22:12:29.577Z,-0.20
2019-04-14T22:14:58.972Z,-0.20
2019-04-14T22:17:28.368Z,-0.30
2019-04-14T22:19:57.761Z,-0.30
2019-04-14T22:22:27.125Z,-0.30
2019-04-14T22:24:56.540Z,-0.30
2019-04-14T22:27:26.025Z,-0.20
2019-04-14T22:29:55.518Z,-0.20
2019-04-14T22:32:24.998Z,-0.20
2019-04-14T22:34:54.467Z,-0.30
2019-04-14T22:37:24.206Z,-0.40
2019-04-14T22:39:53.865Z,-0.40
2019-04-14T22:42:23.285Z,-0.40
2019-04-14T22:44:52.762Z,-0.40
2019-04-14T22:47:22.381Z,-0.40
2019-04-14T22:49:51.864Z,-0.40
2019-04-14T22:52:21.407Z,-0.40
2019-04-14T22:54:51.023Z,-0.40
2019-04-14T22:57:20.533Z,-0.50
2019-04-14T22:59:50.095Z,-0.50
2019-04-14T23:02:38.088Z,-0.50
2019-04-14T23:05:33.097Z,-0.50
2019-04-14T23:08:09.263Z,-0.40
2019-04-14T23:11:06.870Z,-0.30
2019-04-14T23:13:48.285Z,-0.30
2019-04-14T23:16:37.250Z,-0.20
2019-04-14T23:19:11.151Z,-0.10
2019-04-14T23:21:45.061Z,-0.10
2019-04-14T23:24:23.248Z,-0.10
2019-04-14T23:26:53.320Z,-0.20
2019-04-14T23:29:23.066Z,-0.20
2019-04-14T23:31:52.472Z,-0.30
2019-04-14T23:34:21.793Z,-0.40
2019-04-14T23:36:51.180Z,-0.40
2019-04-14T23:39:20.537Z,-0.50
2019-04-14T23:41:49.915Z,-0.50
2019-04-14T23:44:19.413Z,-0.60
2019-04-14T23:46:48.911Z,-0.70
2019-04-14T23:49:18.679Z,-0.70
2019-04-14T23:51:48.057Z,-0.80
2019-04-14T23:54:17.526Z,-0.80
2019-04-14T23:56:47.193Z,-0.80
2019-04-14T23:59:16.648Z,-0.80
